Time;durP1;ratioP1;P1;durP2;ratioP2;P2;SDS_P1;SDS_P2;PMS_P1;PMS_P2;Temp;Humidity;BMP_temperature;BMP_pressure;BME280_temperature;BME280_humidity;BME280_pressure;Samples;Min_cycle;Max_cycle;Signal;HPM_P1;HPM_P2
2023/09/26 00:00:06;;;;;;;10.27;4.50;;;;;;;18.40;92.05;93308.78;5126190;27;20046;-78
2023/09/26 00:02:33;;;;;;;8.20;4.70;;;;;;;18.37;92.45;93304.13;5112591;27;20132;-78
2023/09/26 00:05:03;;;;;;;7.50;4.88;;;;;;;18.29;91.91;93302.81;5110029;28;20040;-79
2023/09/26 00:07:30;;;;;;;8.60;4.22;;;;;;;18.23;91.76;93296.78;5114774;27;20051;-77
2023/09/26 00:09:56;;;;;;;7.45;4.18;;;;;;;18.19;91.45;93300.16;5110909;27;20043;-79
2023/09/26 00:12:23;;;;;;;8.68;4.07;;;;;;;17.92;93.61;93280.25;5110576;27;20049;-78
2023/09/26 00:14:51;;;;;;;6.95;3.95;;;;;;;17.82;93.51;93257.63;5110420;27;20069;-79
2023/09/26 00:17:18;;;;;;;9.27;3.55;;;;;;;18.06;93.39;93288.38;5112711;27;20052;-78
2023/09/26 00:19:45;;;;;;;7.10;3.83;;;;;;;18.11;93.79;93298.81;5110774;27;20069;-78
2023/09/26 00:22:12;;;;;;;7.72;4.35;;;;;;;18.14;93.66;93291.28;5110349;28;20052;-80
2023/09/26 00:24:39;;;;;;;8.50;4.20;;;;;;;18.15;93.57;93287.66;5110266;27;20550;-78
2023/09/26 00:27:06;;;;;;;7.10;4.05;;;;;;;18.14;92.58;93300.91;5121645;27;20046;-79
2023/09/26 00:29:33;;;;;;;6.88;3.67;;;;;;;18.03;93.09;93292.25;5110075;28;20100;-78
2023/09/26 00:32:01;;;;;;;8.80;3.80;;;;;;;18.00;93.92;93290.94;5110485;27;20912;-79
2023/09/26 00:34:29;;;;;;;9.68;4.90;;;;;;;17.72;94.93;93266.13;5109466;27;20043;-78
2023/09/26 00:36:56;;;;;;;6.72;4.00;;;;;;;17.86;95.70;93293.22;5111894;27;20092;-78
2023/09/26 00:39:22;;;;;;;9.05;3.90;;;;;;;17.87;96.08;93292.19;5109895;27;20093;-79
2023/09/26 00:41:50;;;;;;;8.05;4.13;;;;;;;17.93;96.22;93300.81;5113476;27;20051;-78
2023/09/26 00:44:17;;;;;;;8.68;4.22;;;;;;;17.86;95.83;93288.03;5109896;27;20055;-78
2023/09/26 00:46:45;;;;;;;6.28;4.28;;;;;;;18.00;95.43;93306.56;5113219;27;20043;-78
2023/09/26 00:49:14;;;;;;;8.27;4.15;;;;;;;18.05;95.15;93302.41;5110386;27;20828;-79
2023/09/26 00:51:41;;;;;;;9.35;4.60;;;;;;;18.02;95.32;93301.88;5111339;27;20039;-79
2023/09/26 00:54:11;;;;;;;7.70;4.07;;;;;;;18.00;95.25;93288.34;5119305;27;20047;-79
2023/09/26 00:56:40;;;;;;;7.63;4.55;;;;;;;18.15;94.96;93300.66;5120813;27;20050;-79
2023/09/26 00:59:07;;;;;;;7.65;3.88;;;;;;;18.05;94.81;93297.97;5120631;27;20059;-80
2023/09/26 01:01:36;;;;;;;9.57;4.13;;;;;;;18.04;95.02;93299.03;5123522;27;20454;-77
2023/09/26 01:04:04;;;;;;;8.85;3.83;;;;;;;18.12;94.92;93305.59;5115815;27;20179;-77
2023/09/26 01:06:34;;;;;;;8.52;3.85;;;;;;;18.02;95.76;93298.50;5113654;27;20510;-77
2023/09/26 01:09:03;;;;;;;7.20;4.20;;;;;;;17.95;96.57;93298.72;5111121;27;20503;-77
2023/09/26 01:11:30;;;;;;;7.30;4.43;;;;;;;17.92;97.63;93294.06;5110257;27;20109;-78
2023/09/26 01:13:57;;;;;;;8.55;4.65;;;;;;;17.70;98.78;93300.19;5111340;27;20039;-77
2023/09/26 01:16:24;;;;;;;9.45;4.07;;;;;;;17.62;99.63;93298.03;5109428;27;20043;-77
2023/09/26 01:18:51;;;;;;;8.15;4.65;;;;;;;17.43;100.00;93297.66;5111347;27;21097;-78
2023/09/26 01:21:18;;;;;;;7.30;4.85;;;;;;;17.35;100.00;93289.31;5108918;28;20847;-78
2023/09/26 01:23:54;;;;;;;9.27;4.47;;;;;;;17.29;100.00;93295.50;5109793;27;20054;-78
2023/09/26 01:26:21;;;;;;;7.72;4.65;;;;;;;17.14;100.00;93277.22;5110788;27;20048;-77
2023/09/26 01:28:47;;;;;;;6.82;4.50;;;;;;;17.07;100.00;93273.03;5112796;27;20036;-78
2023/09/26 01:31:14;;;;;;;7.43;5.03;;;;;;;16.95;100.00;93278.34;5110211;27;20396;-78
2023/09/26 01:33:41;;;;;;;8.70;4.80;;;;;;;16.79;100.00;93290.41;5110744;27;20058;-78
2023/09/26 01:36:08;;;;;;;7.90;4.78;;;;;;;16.64;100.00;93283.28;5108803;28;20047;-77
2023/09/26 01:38:36;;;;;;;7.88;4.55;;;;;;;16.68;100.00;93283.56;5110707;27;20052;-76
2023/09/26 01:41:05;;;;;;;10.40;5.15;;;;;;;16.66;100.00;93298.59;5108290;27;20040;-77
2023/09/26 01:43:31;;;;;;;9.02;5.10;;;;;;;16.78;100.00;93298.44;5107450;28;20059;-77
2023/09/26 01:45:58;;;;;;;7.97;4.60;;;;;;;16.64;100.00;93301.44;5123289;27;20040;-77
2023/09/26 01:48:25;;;;;;;10.05;5.28;;;;;;;16.72;100.00;93302.81;5112684;27;20100;-78
2023/09/26 01:50:53;;;;;;;8.98;5.07;;;;;;;16.78;100.00;93301.03;5110371;27;20135;-78
2023/09/26 01:53:20;;;;;;;7.65;5.05;;;;;;;16.81;100.00;93290.19;5108369;27;20411;-78
2023/09/26 01:55:47;;;;;;;8.80;4.95;;;;;;;16.95;100.00;93312.06;5112594;27;20061;-77
2023/09/26 01:58:15;;;;;;;10.57;5.00;;;;;;;16.95;100.00;93293.16;5108585;27;20047;-77
2023/09/26 02:00:42;;;;;;;11.18;5.05;;;;;;;16.89;100.00;93299.31;5110419;27;20047;-76
2023/09/26 02:03:09;;;;;;;8.20;4.50;;;;;;;17.00;100.00;93308.75;5108238;27;20055;-78
2023/09/26 02:05:35;;;;;;;9.75;4.53;;;;;;;17.05;100.00;93310.63;5108002;28;20048;-79
2023/09/26 02:08:02;;;;;;;7.68;4.65;;;;;;;17.10;100.00;93310.69;5107882;28;20048;-78
2023/09/26 02:10:29;;;;;;;9.48;4.65;;;;;;;17.16;100.00;93312.28;5109379;27;20077;-77
2023/09/26 02:12:56;;;;;;;6.68;3.95;;;;;;;17.11;100.00;93308.88;5116505;27;20054;-77
2023/09/26 02:15:24;;;;;;;8.57;4.20;;;;;;;17.07;91.63;93298.97;5112361;27;20051;-77
2023/09/26 02:17:51;;;;;;;7.75;3.90;;;;;;;17.03;88.96;93290.13;5107889;27;20096;-76
2023/09/26 02:20:20;;;;;;;9.75;3.80;;;;;;;17.12;87.34;93310.44;5108126;28;20100;-76
2023/09/26 02:22:48;;;;;;;7.72;4.28;;;;;;;16.90;94.39;93274.94;5112154;27;20043;-77
2023/09/26 02:25:18;;;;;;;9.07;3.95;;;;;;;16.77;97.03;93292.47;5107663;28;20487;-77
2023/09/26 02:27:45;;;;;;;9.00;4.15;;;;;;;16.48;96.25;93290.13;5109580;27;20079;-78
2023/09/26 02:30:14;;;;;;;5.88;3.30;;;;;;;16.45;95.23;93285.44;5110841;27;20054;-77
2023/09/26 02:32:42;;;;;;;7.00;3.17;;;;;;;16.42;96.95;93285.91;5111519;27;20083;-77
2023/09/26 02:35:12;;;;;;;7.45;3.85;;;;;;;16.22;99.80;93265.75;5107690;28;20062;-77
2023/09/26 02:37:39;;;;;;;9.68;3.90;;;;;;;16.30;100.00;93267.91;5108269;28;20381;-75
2023/09/26 02:40:09;;;;;;;9.70;5.03;;;;;;;16.33;100.00;93267.41;5111954;27;20043;-76
2023/09/26 02:42:36;;;;;;;10.07;4.60;;;;;;;16.35;100.00;93262.00;5110671;28;20071;-76
2023/09/26 02:45:03;;;;;;;7.75;4.03;;;;;;;16.31;98.66;93266.88;5112309;28;20483;-77
2023/09/26 02:47:30;;;;;;;8.50;3.95;;;;;;;16.27;100.00;93258.03;5111590;28;20063;-77
2023/09/26 02:49:59;;;;;;;10.57;4.80;;;;;;;16.29;95.39;93248.19;5115951;28;20054;-79
2023/09/26 02:52:26;;;;;;;8.90;4.22;;;;;;;16.32;91.53;93236.56;5120464;28;20040;-78
2023/09/26 02:54:54;;;;;;;9.35;3.40;;;;;;;16.50;88.26;93243.22;5117691;27;20043;-77
2023/09/26 02:57:20;;;;;;;7.65;3.53;;;;;;;16.61;86.12;93254.47;5123990;27;20047;-78
2023/09/26 02:59:48;;;;;;;7.53;3.22;;;;;;;16.78;82.31;93259.53;5122726;27;20039;-76
2023/09/26 03:02:15;;;;;;;8.18;2.85;;;;;;;16.80;80.97;93260.84;5122710;27;20046;-76
2023/09/26 03:04:42;;;;;;;13.43;4.20;;;;;;;16.99;78.52;93281.22;5125554;27;20058;-78
2023/09/26 03:07:10;;;;;;;7.95;3.05;;;;;;;17.04;78.39;93288.31;5122707;27;20050;-76
2023/09/26 03:09:37;;;;;;;6.72;3.17;;;;;;;16.98;76.40;93279.66;5120866;27;20138;-77
2023/09/26 03:12:06;;;;;;;9.38;3.17;;;;;;;17.02;76.33;93278.16;5122936;27;20043;-78
2023/09/26 03:14:33;;;;;;;7.28;3.00;;;;;;;17.09;74.83;93280.56;5123711;27;20047;-77
2023/09/26 03:17:00;;;;;;;6.25;2.67;;;;;;;17.06;74.30;93283.66;5122457;27;20040;-77
2023/09/26 03:19:27;;;;;;;7.78;2.85;;;;;;;17.07;73.63;93282.63;5123833;27;20044;-76
2023/09/26 03:21:54;;;;;;;9.05;2.70;;;;;;;17.08;72.41;93276.41;5121176;27;20059;-76
2023/09/26 03:24:22;;;;;;;10.05;2.83;;;;;;;17.06;72.14;93266.28;5121101;27;20054;-75
2023/09/26 03:26:49;;;;;;;7.65;2.67;;;;;;;17.11;71.10;93275.91;5120952;27;20043;-76
2023/09/26 03:29:16;;;;;;;6.50;2.25;;;;;;;17.13;70.96;93279.03;5122422;27;20491;-78
2023/09/26 03:31:44;;;;;;;7.00;2.70;;;;;;;17.11;70.97;93264.75;5121815;27;20047;-76
2023/09/26 03:34:11;;;;;;;9.98;2.67;;;;;;;17.20;70.28;93273.63;5125214;27;20127;-76
2023/09/26 03:36:38;;;;;;;9.98;2.70;;;;;;;17.22;69.87;93269.00;5114025;27;20054;-75
2023/09/26 03:39:05;;;;;;;8.30;2.97;;;;;;;17.26;70.09;93272.63;5112365;27;20055;-77
2023/09/26 03:41:33;;;;;;;5.35;2.42;;;;;;;17.22;70.17;93264.56;5114730;27;20047;-77
2023/09/26 03:44:00;;;;;;;7.65;2.83;;;;;;;17.25;69.07;93278.09;5110453;27;20044;-77
2023/09/26 03:46:27;;;;;;;4.68;2.47;;;;;;;17.30;69.30;93271.09;5112022;27;20059;-76
2023/09/26 03:48:54;;;;;;;8.20;2.92;;;;;;;17.26;69.44;93266.66;5109984;27;20056;-76
2023/09/26 03:51:21;;;;;;;6.05;2.90;;;;;;;17.23;69.30;93270.56;5112356;27;20047;-76
2023/09/26 03:53:48;;;;;;;16.17;3.42;;;;;;;17.20;69.26;93260.66;5113304;27;20066;-77
2023/09/26 03:56:15;;;;;;;4.78;2.45;;;;;;;17.18;69.46;93263.50;5112590;27;20043;-76
2023/09/26 03:58:44;;;;;;;9.88;2.92;;;;;;;17.18;69.50;93257.53;5112219;27;20039;-76
2023/09/26 04:01:12;;;;;;;7.15;2.72;;;;;;;17.07;70.26;93261.84;5111590;27;20446;-75
2023/09/26 04:03:39;;;;;;;7.20;2.72;;;;;;;17.13;69.91;93253.06;5113454;27;20047;-75
2023/09/26 04:06:07;;;;;;;7.85;2.50;;;;;;;17.09;69.82;93252.78;5109308;27;20048;-76
2023/09/26 04:08:34;;;;;;;5.65;2.85;;;;;;;17.08;69.70;93259.00;5114407;27;20125;-75
2023/09/26 04:11:01;;;;;;;8.05;2.97;;;;;;;17.13;70.49;93278.25;5109750;27;20055;-76
2023/09/26 04:13:27;;;;;;;7.75;2.58;;;;;;;17.08;70.87;93274.59;5112638;27;20052;-76
2023/09/26 04:15:56;;;;;;;7.55;2.58;;;;;;;16.97;71.49;93270.31;5106655;27;20050;-77
2023/09/26 04:18:23;;;;;;;6.68;2.85;;;;;;;16.97;71.49;93275.50;5104130;27;20040;-78
2023/09/26 04:20:50;;;;;;;9.30;2.70;;;;;;;16.85;71.29;93264.53;5109496;27;20054;-76
2023/09/26 04:23:17;;;;;;;8.00;2.90;;;;;;;16.96;71.68;93263.56;5106834;27;20051;-76
2023/09/26 04:25:44;;;;;;;6.20;2.95;;;;;;;16.83;72.08;93267.34;5108375;27;20088;-77
2023/09/26 04:28:11;;;;;;;8.27;2.30;;;;;;;16.74;72.35;93267.03;5111245;27;20066;-77
2023/09/26 04:30:41;;;;;;;9.50;2.67;;;;;;;16.68;72.43;93262.81;5102236;27;20090;-77
2023/09/26 04:33:10;;;;;;;7.40;3.13;;;;;;;16.81;72.29;93277.22;5105944;27;20044;-77
2023/09/26 04:35:37;;;;;;;8.43;2.90;;;;;;;16.91;70.46;93269.50;5113798;27;20482;-76
2023/09/26 04:38:05;;;;;;;6.65;2.80;;;;;;;16.86;72.56;93266.09;5115329;27;20672;-77
2023/09/26 04:40:32;;;;;;;8.30;3.22;;;;;;;16.87;71.68;93267.63;5114832;27;20054;-76
2023/09/26 04:43:01;;;;;;;6.20;2.67;;;;;;;17.07;67.00;93282.63;5116767;27;20047;-77
2023/09/26 04:45:31;;;;;;;4.43;2.33;;;;;;;17.17;69.44;93277.50;5121791;27;20048;-76
2023/09/26 04:47:59;;;;;;;5.40;2.60;;;;;;;17.16;70.04;93278.53;5115891;27;20129;-77
2023/09/26 04:50:28;;;;;;;7.90;3.55;;;;;;;17.19;69.27;93290.25;5113574;27;20047;-78
2023/09/26 04:52:56;;;;;;;9.52;3.03;;;;;;;17.17;68.07;93295.66;5113653;27;20051;-76
2023/09/26 04:55:23;;;;;;;5.85;2.67;;;;;;;17.35;65.17;93310.09;5113851;27;20100;-76
2023/09/26 04:57:50;;;;;;;6.75;2.75;;;;;;;17.42;67.55;93322.06;5112616;27;20043;-76
2023/09/26 05:00:19;;;;;;;5.80;2.95;;;;;;;16.96;71.70;93282.50;5111160;27;20073;-77
2023/09/26 05:02:47;;;;;;;6.90;2.90;;;;;;;17.12;72.33;93310.44;5116795;27;20040;-77
2023/09/26 05:05:14;;;;;;;7.20;3.08;;;;;;;17.04;71.64;93314.25;5116201;27;20054;-77
2023/09/26 05:07:44;;;;;;;10.38;3.28;;;;;;;17.04;70.61;93307.25;5120244;27;20518;-77
2023/09/26 05:10:11;;;;;;;8.02;3.08;;;;;;;17.11;68.43;93314.06;5117537;27;20055;-77
2023/09/26 05:12:40;;;;;;;9.70;2.50;;;;;;;17.29;66.67;93337.03;5116475;27;20043;-75
2023/09/26 05:15:12;;;;;;;8.30;3.03;;;;;;;17.38;66.63;93342.56;5118050;27;20047;-75
2023/09/26 05:17:41;;;;;;;7.35;2.63;;;;;;;17.36;68.47;93323.88;5118160;27;20043;-76
2023/09/26 05:20:10;;;;;;;5.18;2.58;;;;;;;17.41;71.62;93333.50;5119567;27;20044;-75
2023/09/26 05:22:38;;;;;;;6.25;2.38;;;;;;;17.38;69.06;93333.97;5117797;27;20047;-76
2023/09/26 05:25:08;;;;;;;5.10;2.63;;;;;;;17.35;69.16;93317.88;5119308;27;20097;-76
2023/09/26 05:27:35;;;;;;;7.45;2.90;;;;;;;17.40;68.66;93337.88;5113697;27;20059;-77
2023/09/26 05:30:02;;;;;;;7.35;2.63;;;;;;;17.54;68.41;93327.09;5118536;27;20485;-77
2023/09/26 05:32:28;;;;;;;6.65;2.60;;;;;;;17.59;66.18;93340.13;5116407;27;20535;-77
2023/09/26 05:34:56;;;;;;;5.47;2.28;;;;;;;17.50;69.56;93337.97;5116099;27;20047;-77
2023/09/26 05:37:23;;;;;;;7.55;3.10;;;;;;;17.37;68.98;93317.63;5119160;27;20574;-76
2023/09/26 05:39:50;;;;;;;5.88;2.65;;;;;;;17.54;69.26;93337.47;5116770;27;20035;-76
2023/09/26 05:42:18;;;;;;;10.10;3.10;;;;;;;17.41;68.15;93318.69;5117927;27;20047;-76
2023/09/26 05:44:45;;;;;;;7.93;2.90;;;;;;;17.31;69.11;93296.03;5115561;27;20051;-76
2023/09/26 05:47:11;;;;;;;7.40;2.67;;;;;;;17.60;68.68;93339.84;5117102;27;20046;-76
2023/09/26 05:49:38;;;;;;;8.20;3.25;;;;;;;17.65;67.25;93333.13;5114332;27;20050;-77
2023/09/26 05:52:05;;;;;;;6.45;2.38;;;;;;;17.82;66.58;93344.13;5117295;27;20415;-76
2023/09/26 05:54:33;;;;;;;6.13;2.75;;;;;;;17.52;66.58;93296.16;5122623;27;20039;-75
2023/09/26 05:57:03;;;;;;;9.25;2.83;;;;;;;17.85;63.40;93351.44;5120374;27;20407;-77
2023/09/26 05:59:31;;;;;;;7.53;3.15;;;;;;;17.88;65.55;93342.34;5120427;27;20043;-76
2023/09/26 06:01:58;;;;;;;9.82;3.08;;;;;;;17.95;66.09;93342.13;5119052;27;20046;-77
2023/09/26 06:04:25;;;;;;;6.90;2.63;;;;;;;17.98;64.18;93339.03;5120541;27;20129;-75
2023/09/26 06:06:52;;;;;;;4.78;2.25;;;;;;;17.86;62.05;93319.22;5118825;27;20043;-75
2023/09/26 06:09:19;;;;;;;6.88;2.95;;;;;;;18.11;62.33;93338.63;5117719;27;20046;-76
2023/09/26 06:11:45;;;;;;;9.07;2.60;;;;;;;18.07;64.88;93336.75;5118470;27;20043;-76
2023/09/26 06:14:12;;;;;;;7.57;2.63;;;;;;;17.99;65.88;93330.97;5117172;27;20518;-75
2023/09/26 06:16:40;;;;;;;9.27;3.15;;;;;;;17.95;64.98;93327.31;5118784;27;20106;-76
2023/09/26 06:19:07;;;;;;;4.50;2.75;;;;;;;18.03;66.24;93345.03;5119255;27;20411;-76
2023/09/26 06:21:34;;;;;;;16.08;4.00;;;;;;;18.02;65.13;93329.69;5120717;27;20046;-76
2023/09/26 06:24:04;;;;;;;7.63;2.78;;;;;;;18.04;67.38;93325.00;5117132;27;20044;-76
2023/09/26 06:26:31;;;;;;;6.13;2.30;;;;;;;17.93;67.10;93333.78;5122946;27;20047;-75
2023/09/26 06:28:59;;;;;;;9.43;2.42;;;;;;;18.00;65.71;93324.75;5118399;27;20357;-77
2023/09/26 06:31:25;;;;;;;9.40;2.63;;;;;;;18.05;66.23;93318.78;5119729;27;20054;-76
2023/09/26 06:33:54;;;;;;;5.68;2.00;;;;;;;17.98;66.42;93321.63;5116235;27;20039;-76
2023/09/26 06:36:21;;;;;;;4.72;2.63;;;;;;;18.00;68.10;93319.53;5113554;27;20058;-77
2023/09/26 06:38:48;;;;;;;8.32;2.33;;;;;;;17.98;67.86;93337.22;5116676;27;20559;-76
2023/09/26 06:41:15;;;;;;;9.43;2.20;;;;;;;18.08;67.24;93325.31;5118660;28;20051;-76
2023/09/26 06:43:42;;;;;;;7.28;2.20;;;;;;;18.00;68.78;93319.53;5116444;28;20054;-76
2023/09/26 06:46:09;;;;;;;10.77;3.13;;;;;;;17.93;69.07;93324.19;5118701;28;20379;-76
2023/09/26 06:48:38;;;;;;;9.75;3.47;;;;;;;18.03;66.98;93329.44;5120229;28;20050;-78
2023/09/26 06:51:08;;;;;;;10.40;3.75;;;;;;;17.96;68.82;93313.28;5117807;28;20047;-76
2023/09/26 06:53:35;;;;;;;14.20;3.53;;;;;;;18.10;69.16;93325.84;5119643;28;20200;-76
2023/09/26 06:56:02;;;;;;;9.43;2.63;;;;;;;18.23;68.84;93327.22;5118626;28;20044;-76
2023/09/26 06:58:29;;;;;;;5.28;2.13;;;;;;;18.02;68.62;93303.69;5114700;28;21373;-77
2023/09/26 07:00:56;;;;;;;10.93;3.13;;;;;;;18.25;70.58;93320.72;5115878;28;20047;-77
2023/09/26 07:03:23;;;;;;;4.57;2.53;;;;;;;18.18;70.28;93322.75;5116599;28;20043;-76
2023/09/26 07:05:50;;;;;;;10.82;2.47;;;;;;;18.13;71.05;93314.94;5112037;28;20047;-76
2023/09/26 07:08:18;;;;;;;7.22;2.25;;;;;;;18.38;71.24;93323.88;5115080;28;20040;-76
2023/09/26 07:10:45;;;;;;;5.00;2.53;;;;;;;18.56;70.99;93322.63;5116533;28;20491;-76
2023/09/26 07:13:13;;;;;;;5.40;2.38;;;;;;;18.22;71.83;93313.44;5114614;27;20055;-76
2023/09/26 07:15:40;;;;;;;6.43;2.55;;;;;;;18.45;72.81;93341.84;5116566;28;20090;-75
2023/09/26 07:18:09;;;;;;;12.32;3.08;;;;;;;18.37;72.73;93317.13;5115010;27;20036;-76
2023/09/26 07:20:38;;;;;;;6.40;2.70;;;;;;;18.16;72.71;93319.66;5116884;28;20073;-77
2023/09/26 07:23:05;;;;;;;6.72;2.67;;;;;;;18.30;73.39;93314.75;5115222;28;20043;-78
2023/09/26 07:25:33;;;;;;;6.75;2.70;;;;;;;18.40;72.84;93340.00;5113773;28;20139;-77
2023/09/26 07:28:00;;;;;;;11.07;3.38;;;;;;;18.36;73.49;93328.53;5116296;28;20035;-79
2023/09/26 07:30:27;;;;;;;7.63;3.80;;;;;;;18.38;73.82;93331.69;5113955;28;20047;-75
2023/09/26 07:32:54;;;;;;;8.77;3.03;;;;;;;18.38;74.39;93329.84;5113132;28;20039;-76
2023/09/26 07:35:21;;;;;;;18.25;7.85;;;;;;;18.50;74.56;93339.25;5117599;28;20423;-77
2023/09/26 07:37:48;;;;;;;12.52;5.28;;;;;;;18.46;74.63;93330.41;5114206;28;20138;-76
2023/09/26 07:40:15;;;;;;;10.25;4.45;;;;;;;18.59;74.95;93331.72;5113219;27;20514;-77
2023/09/26 07:42:43;;;;;;;12.48;3.83;;;;;;;18.46;75.14;93338.22;5115274;27;20414;-77
2023/09/26 07:45:14;;;;;;;8.93;2.65;;;;;;;18.48;76.35;93317.94;5115766;27;20052;-76
2023/09/26 07:47:41;;;;;;;10.40;4.10;;;;;;;18.60;75.44;93323.66;5112654;27;20039;-77
2023/09/26 07:50:08;;;;;;;6.95;3.25;;;;;;;18.72;75.76;93341.66;5120934;27;20044;-76
2023/09/26 07:52:35;;;;;;;8.43;3.30;;;;;;;18.80;74.22;93335.19;5118145;27;20042;-78
2023/09/26 07:55:02;;;;;;;9.25;3.05;;;;;;;18.95;73.34;93342.22;5117778;27;20084;-75
2023/09/26 07:57:29;;;;;;;8.27;2.75;;;;;;;18.77;71.18;93344.28;5116867;27;20055;-78
2023/09/26 07:59:57;;;;;;;7.90;2.92;;;;;;;19.17;73.14;93339.38;5116169;27;20517;-80
2023/09/26 08:02:24;;;;;;;11.43;3.10;;;;;;;19.21;72.17;93343.03;5114732;27;20047;-77
2023/09/26 08:04:51;;;;;;;5.90;2.88;;;;;;;19.11;72.91;93327.41;5115305;27;20132;-78
2023/09/26 08:07:18;;;;;;;8.05;3.58;;;;;;;18.91;73.95;93330.75;5119444;27;20220;-77
2023/09/26 08:09:45;;;;;;;8.13;2.90;;;;;;;18.91;73.87;93330.75;5115255;27;20502;-79
2023/09/26 08:12:11;;;;;;;5.82;3.17;;;;;;;18.89;71.74;93336.22;5118253;27;20048;-78
2023/09/26 08:14:38;;;;;;;5.68;3.03;;;;;;;19.15;72.23;93340.69;5118706;27;20038;-77
2023/09/26 08:17:06;;;;;;;12.25;3.67;;;;;;;19.22;72.86;93352.41;5117028;27;20044;-77
2023/09/26 08:19:33;;;;;;;7.68;3.15;;;;;;;19.23;72.10;93340.19;5118265;27;20043;-77
2023/09/26 08:22:00;;;;;;;5.63;2.60;;;;;;;19.22;72.10;93347.22;5118788;27;20040;-79
2023/09/26 08:24:27;;;;;;;10.98;3.08;;;;;;;19.26;71.37;93347.50;5122148;27;20831;-77
2023/09/26 08:26:54;;;;;;;10.15;2.90;;;;;;;19.69;72.11;93346.41;5117310;27;20066;-78
2023/09/26 08:29:21;;;;;;;13.45;3.75;;;;;;;19.62;70.44;93347.47;5112670;27;20044;-77
2023/09/26 08:31:48;;;;;;;8.52;2.72;;;;;;;19.52;69.20;93324.03;5118248;27;20051;-79
2023/09/26 08:34:16;;;;;;;9.70;3.55;;;;;;;19.72;69.04;93354.47;5120351;27;20467;-77
2023/09/26 08:36:43;;;;;;;7.38;3.03;;;;;;;19.89;68.31;93356.00;5115587;27;20441;-76
2023/09/26 08:39:10;;;;;;;8.43;2.92;;;;;;;19.96;68.37;93356.56;5121698;27;20062;-78
2023/09/26 08:41:37;;;;;;;5.97;2.63;;;;;;;19.83;69.40;93359.69;5115646;27;20062;-76
2023/09/26 08:44:04;;;;;;;9.30;3.35;;;;;;;20.05;69.13;93346.38;5116962;27;20058;-75
2023/09/26 08:46:32;;;;;;;8.48;2.90;;;;;;;20.09;67.79;93372.69;5119973;27;20062;-75
2023/09/26 08:49:00;;;;;;;6.53;3.10;;;;;;;20.11;66.94;93373.19;5117177;27;20078;-76
2023/09/26 08:51:29;;;;;;;8.75;3.03;;;;;;;20.08;67.01;93371.91;5121687;27;20054;-76
2023/09/26 08:53:55;;;;;;;8.13;3.42;;;;;;;20.09;65.42;93372.69;5117416;27;20414;-76
2023/09/26 08:56:22;;;;;;;5.90;2.30;;;;;;;20.14;63.88;93370.06;5122118;27;20486;-77
2023/09/26 08:58:51;;;;;;;8.15;3.00;;;;;;;20.20;64.62;93358.56;5117447;27;20043;-75
2023/09/26 09:01:18;;;;;;;6.95;2.60;;;;;;;20.47;65.00;93367.88;5121520;27;20116;-76
2023/09/26 09:03:46;;;;;;;6.85;2.60;;;;;;;20.58;64.76;93349.53;5119327;27;20587;-75
2023/09/26 09:06:13;;;;;;;9.27;2.70;;;;;;;20.52;64.17;93367.06;5123336;27;20051;-76
2023/09/26 09:08:41;;;;;;;7.30;2.83;;;;;;;20.60;64.15;93379.53;5118426;27;20047;-77
2023/09/26 09:11:08;;;;;;;8.85;2.70;;;;;;;20.44;64.31;93355.34;5118199;27;20046;-77
2023/09/26 09:13:37;;;;;;;9.10;2.67;;;;;;;20.73;63.85;93370.34;5118237;27;20043;-76
2023/09/26 09:16:12;;;;;;;8.57;2.72;;;;;;;20.72;63.16;93366.19;5120676;27;20079;-75
2023/09/26 09:18:41;;;;;;;6.93;2.30;;;;;;;20.91;62.12;93366.38;5118615;27;20047;-76
2023/09/26 09:21:27;;;;;;;7.30;2.63;;;;;;;21.31;60.88;93358.53;5120389;27;20117;-75
2023/09/26 09:23:57;;;;;;;5.95;2.55;;;;;;;21.17;61.36;93361.00;5122214;27;20112;-75
2023/09/26 09:26:26;;;;;;;9.43;2.45;;;;;;;21.10;61.94;93365.72;5113384;27;20051;-75
2023/09/26 09:28:55;;;;;;;13.80;3.15;;;;;;;21.17;62.52;93350.53;5113837;27;20102;-75
2023/09/26 09:31:22;;;;;;;11.95;3.28;;;;;;;21.23;62.78;93364.31;5118915;27;20503;-75
2023/09/26 09:33:52;;;;;;;9.00;2.88;;;;;;;21.04;62.13;93343.31;5114681;27;20167;-79
2023/09/26 09:36:20;;;;;;;5.47;3.13;;;;;;;21.02;62.60;93363.69;5115411;27;20512;-77
2023/09/26 09:38:47;;;;;;;5.78;2.38;;;;;;;20.93;62.13;93356.41;5115061;27;20043;-77
2023/09/26 09:41:15;;;;;;;6.10;2.60;;;;;;;21.18;61.45;93361.75;5116906;27;20047;-78
2023/09/26 09:43:42;;;;;;;8.48;3.20;;;;;;;21.11;60.56;93369.13;5111749;27;20043;-77
2023/09/26 09:46:10;;;;;;;9.10;2.60;;;;;;;21.08;61.66;93355.56;5112514;27;20053;-77
2023/09/26 09:48:42;;;;;;;7.35;2.45;;;;;;;21.40;61.28;93342.25;5114079;27;20063;-76
2023/09/26 09:51:12;;;;;;;6.07;2.38;;;;;;;21.53;60.19;93359.16;5114187;27;20439;-76
2023/09/26 09:53:42;;;;;;;11.52;2.78;;;;;;;21.39;60.02;93357.19;5113300;27;20047;-78
2023/09/26 09:56:09;;;;;;;3.88;2.15;;;;;;;21.69;60.80;93357.16;5113221;27;20040;-76
2023/09/26 09:58:41;;;;;;;6.30;2.67;;;;;;;21.55;59.96;93349.97;5116361;27;20050;-77
2023/09/26 10:01:09;;;;;;;9.88;3.20;;;;;;;21.52;61.20;93358.34;5113664;27;20043;-76
2023/09/26 10:03:36;;;;;;;6.20;3.65;;;;;;;21.72;60.52;93352.19;5113338;27;20047;-76
2023/09/26 10:06:08;;;;;;;8.50;2.70;;;;;;;21.93;60.90;93335.53;5113385;27;20054;-76
2023/09/26 10:08:37;;;;;;;6.72;2.35;;;;;;;22.00;58.46;93355.06;5109569;27;20043;-77
2023/09/26 10:11:06;;;;;;;7.32;2.42;;;;;;;21.69;59.28;93344.88;5117073;27;20108;-78
2023/09/26 10:13:33;;;;;;;5.93;2.22;;;;;;;21.91;59.16;93359.34;5112339;27;20517;-77
2023/09/26 10:16:07;;;;;;;10.52;2.63;;;;;;;22.11;59.83;93347.09;5114556;27;20040;-76
2023/09/26 10:18:37;;;;;;;6.70;2.60;;;;;;;22.09;58.15;93363.09;5118113;27;20124;-77
2023/09/26 10:21:04;;;;;;;8.75;2.80;;;;;;;22.30;58.31;93328.84;5114145;27;20044;-77
2023/09/26 10:23:31;;;;;;;6.38;2.40;;;;;;;21.92;59.27;93349.66;5112360;27;20566;-77
2023/09/26 10:26:03;;;;;;;6.00;2.25;;;;;;;21.91;59.74;93335.81;5115483;27;20370;-76
2023/09/26 10:28:30;;;;;;;6.55;2.50;;;;;;;22.00;58.73;93344.59;5117822;27;20095;-76
2023/09/26 10:30:57;;;;;;;7.00;2.40;;;;;;;21.85;58.84;93342.91;5113272;27;20093;-78
2023/09/26 10:33:28;;;;;;;6.07;3.15;;;;;;;22.02;59.10;93326.00;5116134;27;20080;-76
2023/09/26 10:36:02;;;;;;;8.32;2.40;;;;;;;21.85;59.57;93326.47;5116912;27;20574;-78
2023/09/26 10:38:29;;;;;;;6.88;2.92;;;;;;;22.00;60.20;93333.38;5116174;28;20115;-76
2023/09/26 10:40:56;;;;;;;7.43;2.60;;;;;;;22.32;58.88;93336.41;5118618;27;20039;-76
2023/09/26 10:43:23;;;;;;;4.38;2.30;;;;;;;22.47;57.50;93333.63;5115636;27;20521;-76
2023/09/26 10:45:50;;;;;;;6.72;2.33;;;;;;;22.33;58.22;93317.03;5116211;28;20043;-78
2023/09/26 10:48:20;;;;;;;7.43;2.67;;;;;;;;;;5114793;28;20418;-77
2023/09/26 10:50:49;;;;;;;5.68;2.42;;;;;;;22.29;58.53;93327.28;5118773;28;20441;-76
2023/09/26 10:53:16;;;;;;;4.30;2.58;;;;;;;21.99;59.15;93335.19;5110887;27;20387;-79
2023/09/26 10:55:43;;;;;;;7.15;2.55;;;;;;;22.05;58.68;93340.38;5115000;28;20116;-76
2023/09/26 10:58:12;;;;;;;9.23;2.55;;;;;;;22.06;58.17;93318.38;5113858;28;20052;-80
2023/09/26 11:00:38;;;;;;;11.68;2.90;;;;;;;22.37;58.46;93321.44;5116125;28;20043;-77
2023/09/26 11:03:06;;;;;;;6.30;2.83;;;;;;;22.34;58.70;93310.72;5113157;28;20054;-76
2023/09/26 11:05:33;;;;;;;7.68;2.53;;;;;;;22.45;59.55;93306.16;5110383;28;20048;-75
2023/09/26 11:08:01;;;;;;;5.65;2.28;;;;;;;22.51;58.34;93326.78;5112950;27;20051;-79
2023/09/26 11:10:28;;;;;;;7.65;2.90;;;;;;;22.22;58.77;93334.69;5114986;28;20164;-78
2023/09/26 11:12:55;;;;;;;5.85;3.22;;;;;;;22.17;59.86;93317.22;5114692;28;20051;-77
2023/09/26 11:15:22;;;;;;;5.40;3.25;;;;;;;22.54;59.74;93330.69;5108787;27;20055;-76
2023/09/26 11:17:49;;;;;;;5.88;2.92;;;;;;;22.43;59.54;93293.34;5115357;27;20054;-76
2023/09/26 11:20:16;;;;;;;9.73;3.10;;;;;;;22.39;59.62;93323.75;5112435;27;20046;-78
2023/09/26 11:22:47;;;;;;;7.10;2.70;;;;;;;22.21;59.75;93294.66;5114045;27;20043;-78
2023/09/26 11:25:16;;;;;;;10.75;3.75;;;;;;;22.41;60.84;93321.66;5113497;27;20507;-76
2023/09/26 11:27:45;;;;;;;10.80;4.00;;;;;;;22.31;61.95;93322.53;5115879;27;20047;-77
2023/09/26 11:30:17;;;;;;;7.63;3.30;;;;;;;22.40;61.57;93315.63;5114194;27;20051;-77
2023/09/26 11:32:46;;;;;;;9.38;3.00;;;;;;;22.41;61.04;93317.19;5112931;27;20096;-76